Terminal Aerodrome Forecast
Issued by NWS

Home | Current Version | Previous Version | Text Only | Print | Product List | Glossary On
Versions: 1 2 3 4 5 6 7 8 9 10 11 12 13 14 15 16 17 18 19 20 21 22 23 24 25
000
FTUS46 KOTX 171120
TAFPUW
TAF
KPUW 171120Z 1712/1812 00000KT P6SM SCT150
     FM171500 09005KT 5SM HZ SCT120 BKN180
     FM172000 27005KT P6SM SCT100 BKN150
     FM180100 30002KT P6SM SCT150 BKN200
     FM181000 25005KT P6SM SCT080 BKN120=

USA.gov is the U.S. government's official web portal to all federal, state and local government web resources and services.